sensor_id;sensor_type;location;lat;lon;timestamp;P1;durP1;ratioP1;P2;durP2;ratioP2
1206;SDS011;593;53.184;8.216;2022-10-19T00:00:13;2.70;;;1.20;;
1206;SDS011;593;53.184;8.216;2022-10-19T00:02:39;5.07;;;0.97;;
1206;SDS011;593;53.184;8.216;2022-10-19T00:05:04;2.20;;;0.90;;
1206;SDS011;593;53.184;8.216;2022-10-19T00:07:30;4.80;;;0.80;;
1206;SDS011;593;53.184;8.216;2022-10-19T00:09:55;2.17;;;0.80;;
1206;SDS011;593;53.184;8.216;2022-10-19T00:12:20;2.20;;;0.90;;
1206;SDS011;593;53.184;8.216;2022-10-19T00:14:45;2.57;;;0.80;;
1206;SDS011;593;53.184;8.216;2022-10-19T00:17:11;2.97;;;1.10;;
1206;SDS011;593;53.184;8.216;2022-10-19T00:19:36;2.50;;;0.80;;
1206;SDS011;593;53.184;8.216;2022-10-19T00:22:02;4.03;;;0.90;;
1206;SDS011;593;53.184;8.216;2022-10-19T00:24:27;5.53;;;1.13;;
1206;SDS011;593;53.184;8.216;2022-10-19T00:26:52;2.40;;;0.70;;
1206;SDS011;593;53.184;8.216;2022-10-19T00:29:18;3.37;;;1.00;;
1206;SDS011;593;53.184;8.216;2022-10-19T00:31:43;1.57;;;0.90;;
1206;SDS011;593;53.184;8.216;2022-10-19T00:34:08;2.17;;;0.70;;
1206;SDS011;593;53.184;8.216;2022-10-19T00:36:35;4.47;;;0.77;;
1206;SDS011;593;53.184;8.216;2022-10-19T00:39:03;4.80;;;0.80;;
1206;SDS011;593;53.184;8.216;2022-10-19T00:41:31;2.60;;;0.80;;
1206;SDS011;593;53.184;8.216;2022-10-19T00:43:59;3.33;;;0.80;;
1206;SDS011;593;53.184;8.216;2022-10-19T00:46:27;4.60;;;0.80;;
1206;SDS011;593;53.184;8.216;2022-10-19T00:49:05;2.13;;;0.90;;
1206;SDS011;593;53.184;8.216;2022-10-19T00:51:34;2.73;;;0.80;;
1206;SDS011;593;53.184;8.216;2022-10-19T00:54:03;1.93;;;1.00;;
1206;SDS011;593;53.184;8.216;2022-10-19T00:56:30;2.37;;;0.93;;
1206;SDS011;593;53.184;8.216;2022-10-19T00:58:57;1.00;;;0.80;;
1206;SDS011;593;53.184;8.216;2022-10-19T01:01:23;0.80;;;0.80;;
1206;SDS011;593;53.184;8.216;2022-10-19T01:03:50;5.03;;;1.07;;
1206;SDS011;593;53.184;8.216;2022-10-19T01:06:16;1.37;;;0.50;;
1206;SDS011;593;53.184;8.216;2022-10-19T01:08:42;2.40;;;0.90;;
1206;SDS011;593;53.184;8.216;2022-10-19T01:27:35;1.70;;;0.70;;
1206;SDS011;593;53.184;8.216;2022-10-19T01:30:22;4.83;;;0.70;;
1206;SDS011;593;53.184;8.216;2022-10-19T01:33:11;4.10;;;0.80;;
1206;SDS011;593;53.184;8.216;2022-10-19T01:35:45;2.63;;;0.80;;
1206;SDS011;593;53.184;8.216;2022-10-19T01:38:33;5.27;;;0.60;;
1206;SDS011;593;53.184;8.216;2022-10-19T01:41:15;2.40;;;0.60;;
1206;SDS011;593;53.184;8.216;2022-10-19T01:43:50;2.87;;;0.90;;
1206;SDS011;593;53.184;8.216;2022-10-19T01:46:38;1.23;;;0.70;;
1206;SDS011;593;53.184;8.216;2022-10-19T01:49:07;5.73;;;0.60;;
1206;SDS011;593;53.184;8.216;2022-10-19T01:51:39;2.20;;;0.70;;
1206;SDS011;593;53.184;8.216;2022-10-19T01:54:08;1.70;;;0.50;;
1206;SDS011;593;53.184;8.216;2022-10-19T01:56:38;2.60;;;0.60;;
1206;SDS011;593;53.184;8.216;2022-10-19T01:59:06;2.80;;;0.80;;
1206;SDS011;593;53.184;8.216;2022-10-19T02:01:35;1.10;;;0.70;;
1206;SDS011;593;53.184;8.216;2022-10-19T02:04:05;0.70;;;0.60;;
1206;SDS011;593;53.184;8.216;2022-10-19T02:06:31;3.13;;;0.70;;
1206;SDS011;593;53.184;8.216;2022-10-19T02:08:56;1.53;;;0.53;;
1206;SDS011;593;53.184;8.216;2022-10-19T02:11:22;2.77;;;0.60;;
1206;SDS011;593;53.184;8.216;2022-10-19T02:13:49;1.50;;;0.70;;
1206;SDS011;593;53.184;8.216;2022-10-19T02:16:26;1.53;;;0.80;;
1206;SDS011;593;53.184;8.216;2022-10-19T02:18:56;1.80;;;0.60;;
1206;SDS011;593;53.184;8.216;2022-10-19T02:21:24;5.33;;;0.60;;
1206;SDS011;593;53.184;8.216;2022-10-19T02:23:51;0.63;;;0.60;;
1206;SDS011;593;53.184;8.216;2022-10-19T02:26:16;2.10;;;0.70;;
1206;SDS011;593;53.184;8.216;2022-10-19T02:28:42;5.90;;;0.70;;
1206;SDS011;593;53.184;8.216;2022-10-19T02:31:08;2.70;;;0.70;;
1206;SDS011;593;53.184;8.216;2022-10-19T02:33:34;2.30;;;0.80;;
1206;SDS011;593;53.184;8.216;2022-10-19T02:36:00;13.57;;;0.77;;
1206;SDS011;593;53.184;8.216;2022-10-19T02:38:26;0.70;;;0.53;;
1206;SDS011;593;53.184;8.216;2022-10-19T02:40:57;2.10;;;0.70;;
1206;SDS011;593;53.184;8.216;2022-10-19T02:43:28;2.80;;;0.70;;
1206;SDS011;593;53.184;8.216;2022-10-19T02:45:59;4.80;;;1.30;;
1206;SDS011;593;53.184;8.216;2022-10-19T02:48:28;2.23;;;0.90;;
1206;SDS011;593;53.184;8.216;2022-10-19T02:50:55;0.97;;;0.87;;
1206;SDS011;593;53.184;8.216;2022-10-19T02:53:21;2.10;;;0.70;;
1206;SDS011;593;53.184;8.216;2022-10-19T02:55:47;1.97;;;0.60;;
1206;SDS011;593;53.184;8.216;2022-10-19T02:58:13;2.63;;;0.70;;
1206;SDS011;593;53.184;8.216;2022-10-19T03:00:39;1.93;;;0.50;;
1206;SDS011;593;53.184;8.216;2022-10-19T03:03:04;1.90;;;0.70;;
1206;SDS011;593;53.184;8.216;2022-10-19T03:05:29;2.57;;;0.60;;
1206;SDS011;593;53.184;8.216;2022-10-19T03:07:55;1.60;;;1.50;;
1206;SDS011;593;53.184;8.216;2022-10-19T03:10:20;1.00;;;0.50;;
1206;SDS011;593;53.184;8.216;2022-10-19T03:12:45;1.40;;;0.70;;
1206;SDS011;593;53.184;8.216;2022-10-19T03:15:14;5.90;;;0.53;;
1206;SDS011;593;53.184;8.216;2022-10-19T03:17:40;4.30;;;1.23;;
1206;SDS011;593;53.184;8.216;2022-10-19T03:20:06;3.40;;;0.60;;
1206;SDS011;593;53.184;8.216;2022-10-19T03:22:32;1.97;;;0.80;;
1206;SDS011;593;53.184;8.216;2022-10-19T03:24:57;1.33;;;0.70;;
1206;SDS011;593;53.184;8.216;2022-10-19T03:27:23;2.10;;;0.70;;
1206;SDS011;593;53.184;8.216;2022-10-19T03:29:48;2.73;;;0.60;;
1206;SDS011;593;53.184;8.216;2022-10-19T03:32:13;3.70;;;0.70;;
1206;SDS011;593;53.184;8.216;2022-10-19T03:34:39;2.97;;;0.60;;
1206;SDS011;593;53.184;8.216;2022-10-19T03:37:04;3.13;;;0.67;;
1206;SDS011;593;53.184;8.216;2022-10-19T03:39:30;2.47;;;1.00;;
1206;SDS011;593;53.184;8.216;2022-10-19T03:41:55;3.40;;;0.73;;
1206;SDS011;593;53.184;8.216;2022-10-19T03:44:20;4.07;;;0.50;;
1206;SDS011;593;53.184;8.216;2022-10-19T03:46:46;3.90;;;0.70;;
1206;SDS011;593;53.184;8.216;2022-10-19T03:49:11;2.80;;;0.60;;
1206;SDS011;593;53.184;8.216;2022-10-19T03:51:37;2.77;;;0.70;;
1206;SDS011;593;53.184;8.216;2022-10-19T03:54:03;2.10;;;0.50;;
1206;SDS011;593;53.184;8.216;2022-10-19T03:56:31;4.33;;;1.00;;
1206;SDS011;593;53.184;8.216;2022-10-19T03:58:58;7.30;;;0.75;;
1206;SDS011;593;53.184;8.216;2022-10-19T04:01:26;3.23;;;0.80;;
1206;SDS011;593;53.184;8.216;2022-10-19T04:03:56;2.13;;;0.70;;
1206;SDS011;593;53.184;8.216;2022-10-19T04:06:24;1.23;;;0.60;;
1206;SDS011;593;53.184;8.216;2022-10-19T04:08:55;3.77;;;0.70;;
1206;SDS011;593;53.184;8.216;2022-10-19T04:11:21;1.20;;;0.63;;
1206;SDS011;593;53.184;8.216;2022-10-19T04:13:49;0.63;;;0.60;;
1206;SDS011;593;53.184;8.216;2022-10-19T04:16:15;2.37;;;0.60;;
1206;SDS011;593;53.184;8.216;2022-10-19T04:18:41;1.27;;;0.50;;
1206;SDS011;593;53.184;8.216;2022-10-19T04:21:16;4.67;;;0.83;;
1206;SDS011;593;53.184;8.216;2022-10-19T04:23:44;2.30;;;0.60;;
1206;SDS011;593;53.184;8.216;2022-10-19T04:26:10;2.20;;;0.70;;
1206;SDS011;593;53.184;8.216;2022-10-19T04:28:35;4.37;;;0.77;;
1206;SDS011;593;53.184;8.216;2022-10-19T04:31:01;2.20;;;0.67;;
1206;SDS011;593;53.184;8.216;2022-10-19T04:33:27;1.73;;;0.80;;
1206;SDS011;593;53.184;8.216;2022-10-19T04:36:02;3.03;;;0.50;;
1206;SDS011;593;53.184;8.216;2022-10-19T04:38:29;2.87;;;0.73;;
1206;SDS011;593;53.184;8.216;2022-10-19T04:40:59;1.00;;;0.70;;
1206;SDS011;593;53.184;8.216;2022-10-19T04:43:26;2.20;;;0.60;;
1206;SDS011;593;53.184;8.216;2022-10-19T04:45:51;1.53;;;0.60;;
1206;SDS011;593;53.184;8.216;2022-10-19T04:48:17;3.27;;;0.80;;
1206;SDS011;593;53.184;8.216;2022-10-19T04:50:42;4.10;;;0.60;;
1206;SDS011;593;53.184;8.216;2022-10-19T04:53:07;3.27;;;0.70;;
1206;SDS011;593;53.184;8.216;2022-10-19T04:55:33;3.57;;;0.70;;
1206;SDS011;593;53.184;8.216;2022-10-19T04:57:58;2.17;;;0.90;;
1206;SDS011;593;53.184;8.216;2022-10-19T05:00:23;5.80;;;0.80;;
1206;SDS011;593;53.184;8.216;2022-10-19T05:02:49;4.37;;;1.03;;
1206;SDS011;593;53.184;8.216;2022-10-19T05:05:14;5.70;;;0.70;;
1206;SDS011;593;53.184;8.216;2022-10-19T05:07:39;0.97;;;0.50;;
1206;SDS011;593;53.184;8.216;2022-10-19T05:10:05;2.93;;;0.70;;
1206;SDS011;593;53.184;8.216;2022-10-19T05:12:33;0.93;;;0.60;;
1206;SDS011;593;53.184;8.216;2022-10-19T05:14:59;4.47;;;0.90;;
1206;SDS011;593;53.184;8.216;2022-10-19T05:17:24;3.67;;;0.60;;
1206;SDS011;593;53.184;8.216;2022-10-19T05:19:50;3.53;;;0.80;;
1206;SDS011;593;53.184;8.216;2022-10-19T05:22:15;5.87;;;1.47;;
1206;SDS011;593;53.184;8.216;2022-10-19T05:24:40;7.60;;;1.73;;
1206;SDS011;593;53.184;8.216;2022-10-19T05:27:06;5.57;;;1.00;;
1206;SDS011;593;53.184;8.216;2022-10-19T05:29:31;4.30;;;0.80;;
1206;SDS011;593;53.184;8.216;2022-10-19T05:31:57;6.07;;;0.90;;
1206;SDS011;593;53.184;8.216;2022-10-19T05:34:23;2.67;;;0.90;;
1206;SDS011;593;53.184;8.216;2022-10-19T05:36:48;2.70;;;0.60;;
1206;SDS011;593;53.184;8.216;2022-10-19T05:39:14;4.13;;;1.03;;
1206;SDS011;593;53.184;8.216;2022-10-19T05:41:42;6.60;;;0.70;;
1206;SDS011;593;53.184;8.216;2022-10-19T05:44:13;2.30;;;0.90;;
1206;SDS011;593;53.184;8.216;2022-10-19T05:46:40;1.43;;;0.90;;
1206;SDS011;593;53.184;8.216;2022-10-19T05:49:06;4.90;;;0.70;;
1206;SDS011;593;53.184;8.216;2022-10-19T05:51:31;4.57;;;0.80;;
1206;SDS011;593;53.184;8.216;2022-10-19T05:53:57;2.33;;;0.60;;
1206;SDS011;593;53.184;8.216;2022-10-19T05:56:26;1.67;;;0.70;;
1206;SDS011;593;53.184;8.216;2022-10-19T05:58:54;1.00;;;0.77;;
1206;SDS011;593;53.184;8.216;2022-10-19T06:01:20;3.53;;;0.80;;
1206;SDS011;593;53.184;8.216;2022-10-19T06:03:46;8.20;;;1.03;;
1206;SDS011;593;53.184;8.216;2022-10-19T06:06:15;1.93;;;0.70;;
1206;SDS011;593;53.184;8.216;2022-10-19T06:08:40;5.77;;;1.07;;
1206;SDS011;593;53.184;8.216;2022-10-19T06:11:07;2.50;;;0.67;;
1206;SDS011;593;53.184;8.216;2022-10-19T06:13:38;6.07;;;0.90;;
1206;SDS011;593;53.184;8.216;2022-10-19T06:16:05;3.37;;;0.80;;
1206;SDS011;593;53.184;8.216;2022-10-19T06:18:32;4.00;;;1.07;;
1206;SDS011;593;53.184;8.216;2022-10-19T06:21:04;2.10;;;0.70;;
1206;SDS011;593;53.184;8.216;2022-10-19T06:23:31;2.83;;;0.60;;
1206;SDS011;593;53.184;8.216;2022-10-19T06:25:58;2.10;;;0.60;;
1206;SDS011;593;53.184;8.216;2022-10-19T06:28:25;2.20;;;0.60;;
1206;SDS011;593;53.184;8.216;2022-10-19T06:30:51;3.37;;;1.00;;
1206;SDS011;593;53.184;8.216;2022-10-19T06:33:16;6.17;;;0.87;;
1206;SDS011;593;53.184;8.216;2022-10-19T06:35:41;5.20;;;0.83;;
1206;SDS011;593;53.184;8.216;2022-10-19T06:38:07;3.17;;;0.80;;
1206;SDS011;593;53.184;8.216;2022-10-19T06:40:34;4.53;;;0.73;;
1206;SDS011;593;53.184;8.216;2022-10-19T06:43:00;5.87;;;1.33;;
1206;SDS011;593;53.184;8.216;2022-10-19T06:45:25;6.67;;;0.97;;
1206;SDS011;593;53.184;8.216;2022-10-19T06:47:51;5.37;;;1.20;;
1206;SDS011;593;53.184;8.216;2022-10-19T06:50:16;2.57;;;1.00;;
1206;SDS011;593;53.184;8.216;2022-10-19T06:52:42;3.70;;;0.90;;
1206;SDS011;593;53.184;8.216;2022-10-19T06:55:07;4.00;;;0.67;;
1206;SDS011;593;53.184;8.216;2022-10-19T06:57:33;8.37;;;1.13;;
1206;SDS011;593;53.184;8.216;2022-10-19T06:59:59;2.43;;;0.73;;
1206;SDS011;593;53.184;8.216;2022-10-19T07:02:24;4.57;;;0.73;;
1206;SDS011;593;53.184;8.216;2022-10-19T07:04:49;3.30;;;0.70;;
1206;SDS011;593;53.184;8.216;2022-10-19T07:07:15;9.47;;;0.90;;
1206;SDS011;593;53.184;8.216;2022-10-19T07:09:40;5.13;;;0.80;;
1206;SDS011;593;53.184;8.216;2022-10-19T07:12:06;4.17;;;0.80;;
1206;SDS011;593;53.184;8.216;2022-10-19T07:14:32;3.30;;;1.07;;
1206;SDS011;593;53.184;8.216;2022-10-19T07:17:02;1.70;;;0.83;;
1206;SDS011;593;53.184;8.216;2022-10-19T07:19:29;2.10;;;0.70;;
1206;SDS011;593;53.184;8.216;2022-10-19T07:21:54;1.20;;;0.70;;
1206;SDS011;593;53.184;8.216;2022-10-19T07:24:19;3.03;;;0.70;;
1206;SDS011;593;53.184;8.216;2022-10-19T07:26:45;3.87;;;0.77;;
1206;SDS011;593;53.184;8.216;2022-10-19T07:29:10;3.57;;;0.70;;
1206;SDS011;593;53.184;8.216;2022-10-19T07:31:36;2.43;;;0.70;;
1206;SDS011;593;53.184;8.216;2022-10-19T07:34:02;2.80;;;0.70;;
1206;SDS011;593;53.184;8.216;2022-10-19T07:36:29;3.37;;;0.60;;
1206;SDS011;593;53.184;8.216;2022-10-19T07:38:56;2.60;;;0.90;;
1206;SDS011;593;53.184;8.216;2022-10-19T07:41:22;1.63;;;0.70;;
1206;SDS011;593;53.184;8.216;2022-10-19T07:43:50;2.00;;;0.90;;
1206;SDS011;593;53.184;8.216;2022-10-19T07:46:17;1.90;;;0.80;;
1206;SDS011;593;53.184;8.216;2022-10-19T07:48:44;1.93;;;0.63;;
1206;SDS011;593;53.184;8.216;2022-10-19T07:51:10;5.10;;;0.70;;
1206;SDS011;593;53.184;8.216;2022-10-19T07:53:40;1.77;;;0.50;;
1206;SDS011;593;53.184;8.216;2022-10-19T07:56:10;3.47;;;0.90;;
1206;SDS011;593;53.184;8.216;2022-10-19T07:58:44;3.10;;;0.70;;
1206;SDS011;593;53.184;8.216;2022-10-19T08:01:11;5.00;;;0.70;;
1206;SDS011;593;53.184;8.216;2022-10-19T08:03:38;3.13;;;0.60;;
1206;SDS011;593;53.184;8.216;2022-10-19T08:06:05;1.20;;;0.57;;
1206;SDS011;593;53.184;8.216;2022-10-19T08:08:33;2.27;;;0.60;;
1206;SDS011;593;53.184;8.216;2022-10-19T08:11:12;3.13;;;0.60;;
1206;SDS011;593;53.184;8.216;2022-10-19T08:13:42;3.53;;;0.90;;
1206;SDS011;593;53.184;8.216;2022-10-19T08:18:57;2.60;;;0.80;;
1206;SDS011;593;53.184;8.216;2022-10-19T08:21:25;1.97;;;0.60;;
1206;SDS011;593;53.184;8.216;2022-10-19T08:23:51;3.70;;;0.80;;
1206;SDS011;593;53.184;8.216;2022-10-19T08:26:17;2.70;;;0.73;;
1206;SDS011;593;53.184;8.216;2022-10-19T08:28:43;8.67;;;1.27;;
1206;SDS011;593;53.184;8.216;2022-10-19T08:31:13;2.97;;;0.90;;
1206;SDS011;593;53.184;8.216;2022-10-19T08:33:42;5.33;;;0.80;;
1206;SDS011;593;53.184;8.216;2022-10-19T08:36:07;2.50;;;0.80;;
1206;SDS011;593;53.184;8.216;2022-10-19T08:38:34;1.97;;;0.60;;
1206;SDS011;593;53.184;8.216;2022-10-19T08:41:36;1.27;;;0.53;;
1206;SDS011;593;53.184;8.216;2022-10-19T08:49:42;2.93;;;1.00;;
1206;SDS011;593;53.184;8.216;2022-10-19T08:52:19;2.20;;;0.70;;
1206;SDS011;593;53.184;8.216;2022-10-19T09:05:15;5.40;;;0.67;;
1206;SDS011;593;53.184;8.216;2022-10-19T09:07:44;6.20;;;1.17;;
1206;SDS011;593;53.184;8.216;2022-10-19T09:12:47;2.50;;;0.90;;
1206;SDS011;593;53.184;8.216;2022-10-19T09:15:17;4.90;;;0.60;;
1206;SDS011;593;53.184;8.216;2022-10-19T09:17:44;1.97;;;0.60;;
1206;SDS011;593;53.184;8.216;2022-10-19T09:20:21;2.83;;;0.63;;
1206;SDS011;593;53.184;8.216;2022-10-19T09:23:04;1.70;;;0.63;;
1206;SDS011;593;53.184;8.216;2022-10-19T09:25:44;2.30;;;0.50;;
1206;SDS011;593;53.184;8.216;2022-10-19T09:30:59;8.43;;;0.90;;
1206;SDS011;593;53.184;8.216;2022-10-19T09:33:34;2.57;;;0.80;;
1206;SDS011;593;53.184;8.216;2022-10-19T09:36:03;2.03;;;0.60;;
1206;SDS011;593;53.184;8.216;2022-10-19T09:38:30;2.03;;;0.80;;
1206;SDS011;593;53.184;8.216;2022-10-19T09:40:56;2.37;;;0.63;;
1206;SDS011;593;53.184;8.216;2022-10-19T09:43:23;1.53;;;0.60;;
1206;SDS011;593;53.184;8.216;2022-10-19T09:46:02;1.37;;;0.50;;
1206;SDS011;593;53.184;8.216;2022-10-19T09:51:29;3.90;;;1.90;;
1206;SDS011;593;53.184;8.216;2022-10-19T09:54:03;1.40;;;0.60;;
1206;SDS011;593;53.184;8.216;2022-10-19T09:56:29;1.00;;;0.60;;
1206;SDS011;593;53.184;8.216;2022-10-19T09:59:02;2.00;;;0.53;;
1206;SDS011;593;53.184;8.216;2022-10-19T10:01:35;2.37;;;0.67;;
1206;SDS011;593;53.184;8.216;2022-10-19T10:04:05;4.63;;;0.90;;
1206;SDS011;593;53.184;8.216;2022-10-19T10:06:31;2.30;;;0.53;;
1206;SDS011;593;53.184;8.216;2022-10-19T10:08:58;2.73;;;0.70;;
1206;SDS011;593;53.184;8.216;2022-10-19T10:11:31;3.93;;;0.50;;
1206;SDS011;593;53.184;8.216;2022-10-19T10:14:03;3.07;;;0.60;;
1206;SDS011;593;53.184;8.216;2022-10-19T10:16:36;4.43;;;0.70;;
1206;SDS011;593;53.184;8.216;2022-10-19T10:19:03;1.40;;;0.50;;
1206;SDS011;593;53.184;8.216;2022-10-19T10:21:31;2.60;;;0.60;;
1206;SDS011;593;53.184;8.216;2022-10-19T10:26:42;4.00;;;0.50;;
1206;SDS011;593;53.184;8.216;2022-10-19T10:31:52;2.83;;;0.90;;
1206;SDS011;593;53.184;8.216;2022-10-19T10:37:05;3.60;;;0.87;;
1206;SDS011;593;53.184;8.216;2022-10-19T10:39:32;1.57;;;0.50;;
1206;SDS011;593;53.184;8.216;2022-10-19T10:42:06;4.53;;;0.70;;
1206;SDS011;593;53.184;8.216;2022-10-19T10:44:35;1.77;;;0.60;;
1206;SDS011;593;53.184;8.216;2022-10-19T10:47:02;2.20;;;0.67;;
1206;SDS011;593;53.184;8.216;2022-10-19T10:49:36;2.40;;;0.90;;
1206;SDS011;593;53.184;8.216;2022-10-19T10:52:07;1.60;;;0.50;;
1206;SDS011;593;53.184;8.216;2022-10-19T10:54:36;3.00;;;0.70;;
1206;SDS011;593;53.184;8.216;2022-10-19T10:57:11;2.57;;;0.63;;
1206;SDS011;593;53.184;8.216;2022-10-19T10:59:51;5.47;;;1.00;;
1206;SDS011;593;53.184;8.216;2022-10-19T11:05:30;4.30;;;0.97;;
1206;SDS011;593;53.184;8.216;2022-10-19T11:10:38;3.63;;;0.87;;
1206;SDS011;593;53.184;8.216;2022-10-19T11:15:51;6.43;;;0.90;;
1206;SDS011;593;53.184;8.216;2022-10-19T11:18:29;1.87;;;1.00;;
1206;SDS011;593;53.184;8.216;2022-10-19T11:37:40;4.53;;;0.97;;
1206;SDS011;593;53.184;8.216;2022-10-19T11:40:17;4.77;;;1.27;;
1206;SDS011;593;53.184;8.216;2022-10-19T11:43:00;3.20;;;1.07;;
1206;SDS011;593;53.184;8.216;2022-10-19T11:53:22;4.63;;;0.90;;
1206;SDS011;593;53.184;8.216;2022-10-19T11:55:53;4.30;;;1.40;;
1206;SDS011;593;53.184;8.216;2022-10-19T11:58:26;1.43;;;0.90;;
1206;SDS011;593;53.184;8.216;2022-10-19T12:00:56;4.20;;;1.00;;
1206;SDS011;593;53.184;8.216;2022-10-19T12:09:12;2.10;;;1.20;;
1206;SDS011;593;53.184;8.216;2022-10-19T12:14:27;2.00;;;1.60;;
1206;SDS011;593;53.184;8.216;2022-10-19T12:16:57;3.43;;;1.40;;
1206;SDS011;593;53.184;8.216;2022-10-19T12:19:30;4.27;;;1.33;;
1206;SDS011;593;53.184;8.216;2022-10-19T12:22:01;2.97;;;1.20;;
1206;SDS011;593;53.184;8.216;2022-10-19T12:24:30;2.87;;;1.40;;
1206;SDS011;593;53.184;8.216;2022-10-19T12:26:58;1.60;;;1.10;;
1206;SDS011;593;53.184;8.216;2022-10-19T12:29:28;2.00;;;0.80;;
1206;SDS011;593;53.184;8.216;2022-10-19T12:32:02;4.67;;;1.10;;
1206;SDS011;593;53.184;8.216;2022-10-19T12:44:56;2.80;;;0.97;;
1206;SDS011;593;53.184;8.216;2022-10-19T12:47:38;1.60;;;1.30;;
1206;SDS011;593;53.184;8.216;2022-10-19T12:50:04;4.20;;;1.90;;
1206;SDS011;593;53.184;8.216;2022-10-19T12:52:41;2.47;;;1.77;;
1206;SDS011;593;53.184;8.216;2022-10-19T12:57:42;4.00;;;3.23;;
1206;SDS011;593;53.184;8.216;2022-10-19T13:00:20;2.73;;;2.27;;
1206;SDS011;593;53.184;8.216;2022-10-19T13:02:54;3.43;;;2.37;;
1206;SDS011;593;53.184;8.216;2022-10-19T13:05:26;2.20;;;2.00;;
1206;SDS011;593;53.184;8.216;2022-10-19T13:07:54;2.70;;;2.50;;
1206;SDS011;593;53.184;8.216;2022-10-19T13:10:26;3.53;;;3.23;;
1206;SDS011;593;53.184;8.216;2022-10-19T13:12:53;5.30;;;3.53;;
1206;SDS011;593;53.184;8.216;2022-10-19T13:18:00;6.50;;;4.97;;
1206;SDS011;593;53.184;8.216;2022-10-19T13:25:32;4.87;;;4.57;;
1206;SDS011;593;53.184;8.216;2022-10-19T13:43:59;3.00;;;2.80;;
1206;SDS011;593;53.184;8.216;2022-10-19T13:57:10;2.17;;;1.10;;
1206;SDS011;593;53.184;8.216;2022-10-19T14:00:01;1.43;;;1.10;;
1206;SDS011;593;53.184;8.216;2022-10-19T14:10:31;2.73;;;1.03;;
1206;SDS011;593;53.184;8.216;2022-10-19T14:12:57;2.00;;;1.30;;
1206;SDS011;593;53.184;8.216;2022-10-19T14:15:25;2.07;;;1.37;;
1206;SDS011;593;53.184;8.216;2022-10-19T14:17:53;3.03;;;1.10;;
1206;SDS011;593;53.184;8.216;2022-10-19T14:23:17;2.43;;;1.00;;
1206;SDS011;593;53.184;8.216;2022-10-19T14:25:48;2.80;;;1.30;;
1206;SDS011;593;53.184;8.216;2022-10-19T14:28:16;3.07;;;1.20;;
1206;SDS011;593;53.184;8.216;2022-10-19T14:30:41;3.40;;;1.27;;
1206;SDS011;593;53.184;8.216;2022-10-19T14:33:08;3.40;;;0.77;;
1206;SDS011;593;53.184;8.216;2022-10-19T14:35:36;2.13;;;1.03;;
1206;SDS011;593;53.184;8.216;2022-10-19T14:38:07;1.70;;;0.97;;
1206;SDS011;593;53.184;8.216;2022-10-19T14:40:40;1.43;;;1.00;;
1206;SDS011;593;53.184;8.216;2022-10-19T14:43:19;2.70;;;1.27;;
1206;SDS011;593;53.184;8.216;2022-10-19T14:48:30;2.43;;;1.20;;
1206;SDS011;593;53.184;8.216;2022-10-19T14:50:57;0.93;;;0.90;;
1206;SDS011;593;53.184;8.216;2022-10-19T14:53:39;1.80;;;1.03;;
1206;SDS011;593;53.184;8.216;2022-10-19T14:56:39;2.00;;;1.37;;
1206;SDS011;593;53.184;8.216;2022-10-19T14:59:21;3.07;;;1.17;;
1206;SDS011;593;53.184;8.216;2022-10-19T15:01:52;2.77;;;1.20;;
1206;SDS011;593;53.184;8.216;2022-10-19T15:04:21;3.60;;;1.27;;
1206;SDS011;593;53.184;8.216;2022-10-19T15:06:52;2.10;;;0.90;;
1206;SDS011;593;53.184;8.216;2022-10-19T15:09:32;1.57;;;1.10;;
1206;SDS011;593;53.184;8.216;2022-10-19T15:12:04;2.00;;;0.90;;
1206;SDS011;593;53.184;8.216;2022-10-19T15:14:33;3.00;;;1.10;;
1206;SDS011;593;53.184;8.216;2022-10-19T15:17:01;1.33;;;0.70;;
1206;SDS011;593;53.184;8.216;2022-10-19T15:19:38;1.07;;;0.87;;
1206;SDS011;593;53.184;8.216;2022-10-19T15:22:05;1.97;;;0.80;;
1206;SDS011;593;53.184;8.216;2022-10-19T15:24:53;2.20;;;0.67;;
1206;SDS011;593;53.184;8.216;2022-10-19T15:32:41;5.37;;;1.10;;
1206;SDS011;593;53.184;8.216;2022-10-19T15:38:01;2.00;;;0.73;;
1206;SDS011;593;53.184;8.216;2022-10-19T15:40:35;1.40;;;1.07;;
1206;SDS011;593;53.184;8.216;2022-10-19T15:51:08;3.67;;;1.63;;
1206;SDS011;593;53.184;8.216;2022-10-19T15:53:50;0.87;;;0.87;;
1206;SDS011;593;53.184;8.216;2022-10-19T15:56:19;4.37;;;1.10;;
1206;SDS011;593;53.184;8.216;2022-10-19T15:58:49;2.23;;;0.77;;
1206;SDS011;593;53.184;8.216;2022-10-19T16:01:19;0.70;;;0.70;;
1206;SDS011;593;53.184;8.216;2022-10-19T16:03:48;1.73;;;0.70;;
1206;SDS011;593;53.184;8.216;2022-10-19T16:06:14;2.03;;;0.70;;
1206;SDS011;593;53.184;8.216;2022-10-19T16:08:41;1.20;;;0.90;;
1206;SDS011;593;53.184;8.216;2022-10-19T16:11:13;2.40;;;1.37;;
1206;SDS011;593;53.184;8.216;2022-10-19T16:13:39;2.23;;;0.93;;
1206;SDS011;593;53.184;8.216;2022-10-19T16:16:06;2.83;;;1.13;;
1206;SDS011;593;53.184;8.216;2022-10-19T16:18:34;2.07;;;1.30;;
1206;SDS011;593;53.184;8.216;2022-10-19T16:20:59;1.30;;;1.10;;
1206;SDS011;593;53.184;8.216;2022-10-19T16:23:25;1.90;;;1.00;;
1206;SDS011;593;53.184;8.216;2022-10-19T16:25:50;1.40;;;0.90;;
1206;SDS011;593;53.184;8.216;2022-10-19T16:28:16;2.30;;;1.00;;
1206;SDS011;593;53.184;8.216;2022-10-19T16:30:43;4.00;;;0.87;;
1206;SDS011;593;53.184;8.216;2022-10-19T16:33:08;1.57;;;1.00;;
1206;SDS011;593;53.184;8.216;2022-10-19T16:35:35;3.73;;;1.13;;
1206;SDS011;593;53.184;8.216;2022-10-19T16:38:01;2.87;;;1.50;;
1206;SDS011;593;53.184;8.216;2022-10-19T16:40:26;2.10;;;0.90;;
1206;SDS011;593;53.184;8.216;2022-10-19T16:42:52;3.03;;;1.10;;
1206;SDS011;593;53.184;8.216;2022-10-19T16:45:20;3.53;;;1.10;;
1206;SDS011;593;53.184;8.216;2022-10-19T16:47:48;5.20;;;1.40;;
1206;SDS011;593;53.184;8.216;2022-10-19T16:50:13;1.80;;;0.90;;
1206;SDS011;593;53.184;8.216;2022-10-19T16:52:39;2.30;;;1.43;;
1206;SDS011;593;53.184;8.216;2022-10-19T16:55:04;3.00;;;1.77;;
1206;SDS011;593;53.184;8.216;2022-10-19T16:57:30;4.50;;;1.83;;
1206;SDS011;593;53.184;8.216;2022-10-19T16:59:55;3.67;;;1.70;;
1206;SDS011;593;53.184;8.216;2022-10-19T17:02:21;2.13;;;1.77;;
1206;SDS011;593;53.184;8.216;2022-10-19T17:04:47;4.37;;;1.37;;
1206;SDS011;593;53.184;8.216;2022-10-19T17:07:12;1.87;;;1.30;;
1206;SDS011;593;53.184;8.216;2022-10-19T17:09:38;3.53;;;1.47;;
1206;SDS011;593;53.184;8.216;2022-10-19T17:12:04;4.17;;;1.63;;
1206;SDS011;593;53.184;8.216;2022-10-19T17:14:30;2.30;;;1.60;;
1206;SDS011;593;53.184;8.216;2022-10-19T17:16:56;3.53;;;1.83;;
1206;SDS011;593;53.184;8.216;2022-10-19T17:19:21;2.33;;;1.80;;
1206;SDS011;593;53.184;8.216;2022-10-19T17:21:47;6.70;;;1.87;;
1206;SDS011;593;53.184;8.216;2022-10-19T17:24:15;1.50;;;1.40;;
1206;SDS011;593;53.184;8.216;2022-10-19T17:26:41;3.67;;;2.27;;
1206;SDS011;593;53.184;8.216;2022-10-19T17:29:09;8.97;;;2.03;;
1206;SDS011;593;53.184;8.216;2022-10-19T17:31:36;2.10;;;2.00;;
1206;SDS011;593;53.184;8.216;2022-10-19T17:34:02;2.30;;;1.53;;
1206;SDS011;593;53.184;8.216;2022-10-19T17:36:29;2.23;;;1.80;;
1206;SDS011;593;53.184;8.216;2022-10-19T17:39:00;3.00;;;2.00;;
1206;SDS011;593;53.184;8.216;2022-10-19T17:41:28;5.60;;;3.67;;
1206;SDS011;593;53.184;8.216;2022-10-19T17:43:53;5.37;;;4.83;;
1206;SDS011;593;53.184;8.216;2022-10-19T17:46:20;4.93;;;3.60;;
1206;SDS011;593;53.184;8.216;2022-10-19T17:48:47;4.37;;;3.50;;
1206;SDS011;593;53.184;8.216;2022-10-19T17:51:16;3.00;;;2.80;;
1206;SDS011;593;53.184;8.216;2022-10-19T17:53:48;3.30;;;2.73;;
1206;SDS011;593;53.184;8.216;2022-10-19T17:56:14;3.77;;;3.30;;
1206;SDS011;593;53.184;8.216;2022-10-19T17:58:42;5.50;;;3.33;;
1206;SDS011;593;53.184;8.216;2022-10-19T18:01:08;7.53;;;3.00;;
1206;SDS011;593;53.184;8.216;2022-10-19T18:03:35;3.10;;;2.90;;
1206;SDS011;593;53.184;8.216;2022-10-19T18:06:05;4.07;;;2.40;;
1206;SDS011;593;53.184;8.216;2022-10-19T18:08:33;7.93;;;3.00;;
1206;SDS011;593;53.184;8.216;2022-10-19T18:11:02;2.93;;;2.60;;
1206;SDS011;593;53.184;8.216;2022-10-19T18:13:30;3.83;;;2.33;;
1206;SDS011;593;53.184;8.216;2022-10-19T18:15:59;2.90;;;2.40;;
1206;SDS011;593;53.184;8.216;2022-10-19T18:18:30;4.23;;;2.83;;
1206;SDS011;593;53.184;8.216;2022-10-19T18:20:57;3.30;;;2.40;;
1206;SDS011;593;53.184;8.216;2022-10-19T18:23:23;5.03;;;2.37;;
1206;SDS011;593;53.184;8.216;2022-10-19T18:25:48;3.70;;;2.43;;
1206;SDS011;593;53.184;8.216;2022-10-19T18:28:14;4.13;;;2.70;;